sensor_id;sensor_type;location;lat;lon;timestamp;temperature;humidity
3699;DHT22;1865;50.918;7.092;2022-10-16T00:00:43;18.80;62.50
3699;DHT22;1865;50.918;7.092;2022-10-16T00:03:09;18.70;62.50
3699;DHT22;1865;50.918;7.092;2022-10-16T00:05:42;18.80;62.30
3699;DHT22;1865;50.918;7.092;2022-10-16T00:08:10;18.80;62.50
3699;DHT22;1865;50.918;7.092;2022-10-16T00:10:36;18.80;62.10
3699;DHT22;1865;50.918;7.092;2022-10-16T00:13:02;18.80;62.00
3699;DHT22;1865;50.918;7.092;2022-10-16T00:15:27;18.70;62.10
3699;DHT22;1865;50.918;7.092;2022-10-16T00:17:53;18.80;61.90
3699;DHT22;1865;50.918;7.092;2022-10-16T00:20:19;18.70;61.60
3699;DHT22;1865;50.918;7.092;2022-10-16T00:22:44;18.70;61.70
3699;DHT22;1865;50.918;7.092;2022-10-16T00:25:10;18.70;61.70
3699;DHT22;1865;50.918;7.092;2022-10-16T00:27:35;18.70;61.80
3699;DHT22;1865;50.918;7.092;2022-10-16T00:30:01;18.70;61.60
3699;DHT22;1865;50.918;7.092;2022-10-16T00:32:26;18.70;61.30
3699;DHT22;1865;50.918;7.092;2022-10-16T00:34:52;18.70;61.30
3699;DHT22;1865;50.918;7.092;2022-10-16T00:37:20;18.70;61.30
3699;DHT22;1865;50.918;7.092;2022-10-16T00:39:45;18.70;61.10
3699;DHT22;1865;50.918;7.092;2022-10-16T00:42:16;18.70;61.20
3699;DHT22;1865;50.918;7.092;2022-10-16T00:44:53;18.70;61.00
3699;DHT22;1865;50.918;7.092;2022-10-16T00:47:29;18.70;61.10
3699;DHT22;1865;50.918;7.092;2022-10-16T00:52:46;18.60;61.20
3699;DHT22;1865;50.918;7.092;2022-10-16T00:55:12;18.50;61.40
3699;DHT22;1865;50.918;7.092;2022-10-16T00:57:39;18.50;61.50
3699;DHT22;1865;50.918;7.092;2022-10-16T01:00:08;18.50;61.50
3699;DHT22;1865;50.918;7.092;2022-10-16T01:02:34;18.50;61.30
3699;DHT22;1865;50.918;7.092;2022-10-16T01:05:00;18.50;61.30
3699;DHT22;1865;50.918;7.092;2022-10-16T01:10:30;18.40;61.40
3699;DHT22;1865;50.918;7.092;2022-10-16T01:13:00;18.40;61.50
3699;DHT22;1865;50.918;7.092;2022-10-16T01:18:14;18.40;61.60
3699;DHT22;1865;50.918;7.092;2022-10-16T01:29:13;18.40;61.00
3699;DHT22;1865;50.918;7.092;2022-10-16T01:31:42;18.40;61.20
3699;DHT22;1865;50.918;7.092;2022-10-16T01:34:15;18.40;61.20
3699;DHT22;1865;50.918;7.092;2022-10-16T01:36:47;18.40;61.20
3699;DHT22;1865;50.918;7.092;2022-10-16T01:39:16;18.30;61.00
3699;DHT22;1865;50.918;7.092;2022-10-16T01:41:47;18.20;61.20
3699;DHT22;1865;50.918;7.092;2022-10-16T01:44:18;18.20;61.40
3699;DHT22;1865;50.918;7.092;2022-10-16T01:46:48;18.10;61.90
3699;DHT22;1865;50.918;7.092;2022-10-16T01:49:16;18.10;62.00
3699;DHT22;1865;50.918;7.092;2022-10-16T01:51:45;18.10;62.00
3699;DHT22;1865;50.918;7.092;2022-10-16T01:54:14;18.00;62.00
3699;DHT22;1865;50.918;7.092;2022-10-16T01:56:42;18.00;62.00
3699;DHT22;1865;50.918;7.092;2022-10-16T01:59:17;17.90;62.40
3699;DHT22;1865;50.918;7.092;2022-10-16T02:01:47;17.90;62.30
3699;DHT22;1865;50.918;7.092;2022-10-16T02:04:37;17.90;62.20
3699;DHT22;1865;50.918;7.092;2022-10-16T02:07:03;17.90;62.40
3699;DHT22;1865;50.918;7.092;2022-10-16T02:09:30;17.90;62.60
3699;DHT22;1865;50.918;7.092;2022-10-16T02:12:00;17.90;62.30
3699;DHT22;1865;50.918;7.092;2022-10-16T02:14:28;17.90;62.10
3699;DHT22;1865;50.918;7.092;2022-10-16T02:16:54;17.90;62.10
3699;DHT22;1865;50.918;7.092;2022-10-16T02:19:20;17.90;62.00
3699;DHT22;1865;50.918;7.092;2022-10-16T02:22:17;17.90;61.90
3699;DHT22;1865;50.918;7.092;2022-10-16T02:25:03;17.80;62.20
3699;DHT22;1865;50.918;7.092;2022-10-16T02:27:33;17.80;62.40
3699;DHT22;1865;50.918;7.092;2022-10-16T02:30:20;17.70;62.90
3699;DHT22;1865;50.918;7.092;2022-10-16T02:32:48;17.70;62.80
3699;DHT22;1865;50.918;7.092;2022-10-16T02:35:17;17.70;62.90
3699;DHT22;1865;50.918;7.092;2022-10-16T02:37:44;17.80;62.80
3699;DHT22;1865;50.918;7.092;2022-10-16T02:40:11;17.80;62.60
3699;DHT22;1865;50.918;7.092;2022-10-16T02:42:39;17.90;62.50
3699;DHT22;1865;50.918;7.092;2022-10-16T02:45:07;17.90;62.10
3699;DHT22;1865;50.918;7.092;2022-10-16T02:47:33;17.90;62.30
3699;DHT22;1865;50.918;7.092;2022-10-16T02:49:58;17.80;62.40
3699;DHT22;1865;50.918;7.092;2022-10-16T02:52:24;17.70;62.40
3699;DHT22;1865;50.918;7.092;2022-10-16T02:54:50;17.70;63.10
3699;DHT22;1865;50.918;7.092;2022-10-16T02:57:15;17.70;63.00
3699;DHT22;1865;50.918;7.092;2022-10-16T02:59:41;17.60;63.10
3699;DHT22;1865;50.918;7.092;2022-10-16T03:02:07;17.70;63.40
3699;DHT22;1865;50.918;7.092;2022-10-16T03:04:32;17.70;63.10
3699;DHT22;1865;50.918;7.092;2022-10-16T03:06:58;17.70;63.10
3699;DHT22;1865;50.918;7.092;2022-10-16T03:09:23;17.80;62.90
3699;DHT22;1865;50.918;7.092;2022-10-16T03:11:49;17.90;63.00
3699;DHT22;1865;50.918;7.092;2022-10-16T03:14:14;17.90;62.80
3699;DHT22;1865;50.918;7.092;2022-10-16T03:16:40;18.00;62.80
3699;DHT22;1865;50.918;7.092;2022-10-16T03:19:05;18.00;62.80
3699;DHT22;1865;50.918;7.092;2022-10-16T03:21:31;18.00;62.70
3699;DHT22;1865;50.918;7.092;2022-10-16T03:23:56;17.90;62.50
3699;DHT22;1865;50.918;7.092;2022-10-16T03:26:22;17.90;62.60
3699;DHT22;1865;50.918;7.092;2022-10-16T03:28:47;17.90;62.80
3699;DHT22;1865;50.918;7.092;2022-10-16T03:31:13;17.80;62.70
3699;DHT22;1865;50.918;7.092;2022-10-16T03:33:38;17.80;62.60
3699;DHT22;1865;50.918;7.092;2022-10-16T03:36:04;17.80;63.50
3699;DHT22;1865;50.918;7.092;2022-10-16T03:38:29;17.80;62.60
3699;DHT22;1865;50.918;7.092;2022-10-16T03:40:55;17.80;62.70
3699;DHT22;1865;50.918;7.092;2022-10-16T03:43:20;17.70;63.20
3699;DHT22;1865;50.918;7.092;2022-10-16T03:45:46;17.80;63.10
3699;DHT22;1865;50.918;7.092;2022-10-16T03:48:11;17.80;62.90
3699;DHT22;1865;50.918;7.092;2022-10-16T03:50:37;17.90;62.90
3699;DHT22;1865;50.918;7.092;2022-10-16T03:53:02;17.90;62.60
3699;DHT22;1865;50.918;7.092;2022-10-16T03:55:28;18.00;62.50
3699;DHT22;1865;50.918;7.092;2022-10-16T03:57:54;18.00;62.50
3699;DHT22;1865;50.918;7.092;2022-10-16T04:00:19;18.00;62.30
3699;DHT22;1865;50.918;7.092;2022-10-16T04:02:45;18.00;62.50
3699;DHT22;1865;50.918;7.092;2022-10-16T04:05:10;18.10;62.70
3699;DHT22;1865;50.918;7.092;2022-10-16T04:07:36;18.10;62.70
3699;DHT22;1865;50.918;7.092;2022-10-16T04:10:01;18.10;62.70
3699;DHT22;1865;50.918;7.092;2022-10-16T04:12:27;18.10;62.70
3699;DHT22;1865;50.918;7.092;2022-10-16T04:14:53;18.10;62.50
3699;DHT22;1865;50.918;7.092;2022-10-16T04:17:18;18.00;62.30
3699;DHT22;1865;50.918;7.092;2022-10-16T04:19:44;17.90;62.40
3699;DHT22;1865;50.918;7.092;2022-10-16T04:22:11;17.90;62.70
3699;DHT22;1865;50.918;7.092;2022-10-16T04:24:36;17.90;62.70
3699;DHT22;1865;50.918;7.092;2022-10-16T04:27:02;17.90;62.30
3699;DHT22;1865;50.918;7.092;2022-10-16T04:29:27;17.90;62.50
3699;DHT22;1865;50.918;7.092;2022-10-16T04:31:53;17.90;62.30
3699;DHT22;1865;50.918;7.092;2022-10-16T04:34:18;18.00;62.20
3699;DHT22;1865;50.918;7.092;2022-10-16T04:36:47;18.00;62.20
3699;DHT22;1865;50.918;7.092;2022-10-16T04:39:13;18.00;62.30
3699;DHT22;1865;50.918;7.092;2022-10-16T04:41:38;18.00;62.10
3699;DHT22;1865;50.918;7.092;2022-10-16T04:44:04;18.00;61.80
3699;DHT22;1865;50.918;7.092;2022-10-16T04:46:29;18.00;62.00
3699;DHT22;1865;50.918;7.092;2022-10-16T04:48:55;18.00;61.80
3699;DHT22;1865;50.918;7.092;2022-10-16T04:51:20;18.00;61.90
3699;DHT22;1865;50.918;7.092;2022-10-16T04:53:46;18.00;61.70
3699;DHT22;1865;50.918;7.092;2022-10-16T04:56:11;18.00;61.70
3699;DHT22;1865;50.918;7.092;2022-10-16T04:58:37;18.00;61.70
3699;DHT22;1865;50.918;7.092;2022-10-16T05:01:02;18.00;61.60
3699;DHT22;1865;50.918;7.092;2022-10-16T05:03:28;18.00;61.50
3699;DHT22;1865;50.918;7.092;2022-10-16T05:05:53;18.00;61.50
3699;DHT22;1865;50.918;7.092;2022-10-16T05:08:19;18.10;61.40
3699;DHT22;1865;50.918;7.092;2022-10-16T05:10:45;18.10;61.40
3699;DHT22;1865;50.918;7.092;2022-10-16T05:13:11;18.10;61.00
3699;DHT22;1865;50.918;7.092;2022-10-16T05:15:36;18.10;61.20
3699;DHT22;1865;50.918;7.092;2022-10-16T05:18:02;18.20;61.00
3699;DHT22;1865;50.918;7.092;2022-10-16T05:20:28;18.10;61.10
3699;DHT22;1865;50.918;7.092;2022-10-16T05:22:53;18.20;61.10
3699;DHT22;1865;50.918;7.092;2022-10-16T05:25:19;18.20;60.90
3699;DHT22;1865;50.918;7.092;2022-10-16T05:27:47;18.20;61.00
3699;DHT22;1865;50.918;7.092;2022-10-16T05:30:13;18.10;61.10
3699;DHT22;1865;50.918;7.092;2022-10-16T05:32:39;18.10;61.10
3699;DHT22;1865;50.918;7.092;2022-10-16T05:35:05;18.10;61.20
3699;DHT22;1865;50.918;7.092;2022-10-16T05:37:30;18.00;61.30
3699;DHT22;1865;50.918;7.092;2022-10-16T05:39:56;18.10;61.40
3699;DHT22;1865;50.918;7.092;2022-10-16T05:42:21;18.10;61.50
3699;DHT22;1865;50.918;7.092;2022-10-16T05:44:47;18.00;61.30
3699;DHT22;1865;50.918;7.092;2022-10-16T05:47:13;18.00;61.50
3699;DHT22;1865;50.918;7.092;2022-10-16T05:49:39;18.00;61.30
3699;DHT22;1865;50.918;7.092;2022-10-16T05:52:05;18.00;61.20
3699;DHT22;1865;50.918;7.092;2022-10-16T05:54:30;18.00;61.30
3699;DHT22;1865;50.918;7.092;2022-10-16T05:56:56;17.90;61.30
3699;DHT22;1865;50.918;7.092;2022-10-16T05:59:21;17.90;61.50
3699;DHT22;1865;50.918;7.092;2022-10-16T06:01:47;17.80;61.40
3699;DHT22;1865;50.918;7.092;2022-10-16T06:04:12;17.80;61.70
3699;DHT22;1865;50.918;7.092;2022-10-16T06:06:38;17.70;61.70
3699;DHT22;1865;50.918;7.092;2022-10-16T06:09:03;17.70;62.00
3699;DHT22;1865;50.918;7.092;2022-10-16T06:11:32;17.70;61.90
3699;DHT22;1865;50.918;7.092;2022-10-16T06:14:00;17.70;62.60
3699;DHT22;1865;50.918;7.092;2022-10-16T06:16:28;17.60;61.50
3699;DHT22;1865;50.918;7.092;2022-10-16T06:18:55;17.60;61.50
3699;DHT22;1865;50.918;7.092;2022-10-16T06:21:26;17.60;61.60
3699;DHT22;1865;50.918;7.092;2022-10-16T06:23:52;17.50;61.80
3699;DHT22;1865;50.918;7.092;2022-10-16T06:26:21;17.40;62.00
3699;DHT22;1865;50.918;7.092;2022-10-16T06:28:47;17.40;62.00
3699;DHT22;1865;50.918;7.092;2022-10-16T06:31:13;17.50;61.80
3699;DHT22;1865;50.918;7.092;2022-10-16T06:33:39;17.40;61.80
3699;DHT22;1865;50.918;7.092;2022-10-16T06:36:10;17.40;61.70
3699;DHT22;1865;50.918;7.092;2022-10-16T06:38:36;17.40;61.90
3699;DHT22;1865;50.918;7.092;2022-10-16T06:41:03;17.40;62.00
3699;DHT22;1865;50.918;7.092;2022-10-16T06:43:29;17.40;62.50
3699;DHT22;1865;50.918;7.092;2022-10-16T06:45:59;17.40;62.60
3699;DHT22;1865;50.918;7.092;2022-10-16T06:48:25;17.50;62.60
3699;DHT22;1865;50.918;7.092;2022-10-16T06:51:11;17.50;62.60
3699;DHT22;1865;50.918;7.092;2022-10-16T06:53:39;17.50;63.00
3699;DHT22;1865;50.918;7.092;2022-10-16T06:56:40;17.70;63.40
3699;DHT22;1865;50.918;7.092;2022-10-16T06:59:06;17.80;63.10
3699;DHT22;1865;50.918;7.092;2022-10-16T07:01:32;17.90;63.30
3699;DHT22;1865;50.918;7.092;2022-10-16T07:03:57;18.00;63.30
3699;DHT22;1865;50.918;7.092;2022-10-16T07:06:24;18.00;63.30
3699;DHT22;1865;50.918;7.092;2022-10-16T07:08:50;18.20;63.20
3699;DHT22;1865;50.918;7.092;2022-10-16T07:11:21;18.30;63.10
3699;DHT22;1865;50.918;7.092;2022-10-16T07:13:48;18.40;62.80
3699;DHT22;1865;50.918;7.092;2022-10-16T07:16:16;18.40;62.90
3699;DHT22;1865;50.918;7.092;2022-10-16T07:18:42;18.50;62.90
3699;DHT22;1865;50.918;7.092;2022-10-16T07:21:13;18.60;62.50
3699;DHT22;1865;50.918;7.092;2022-10-16T07:23:39;18.60;62.50
3699;DHT22;1865;50.918;7.092;2022-10-16T07:26:05;18.60;62.40
3699;DHT22;1865;50.918;7.092;2022-10-16T07:28:31;18.70;62.50
3699;DHT22;1865;50.918;7.092;2022-10-16T07:31:02;18.70;62.40
3699;DHT22;1865;50.918;7.092;2022-10-16T07:33:29;18.70;62.40
3699;DHT22;1865;50.918;7.092;2022-10-16T07:35:55;18.70;62.10
3699;DHT22;1865;50.918;7.092;2022-10-16T07:38:21;18.80;62.30
3699;DHT22;1865;50.918;7.092;2022-10-16T07:40:48;18.90;62.20
3699;DHT22;1865;50.918;7.092;2022-10-16T07:43:14;18.90;62.10
3699;DHT22;1865;50.918;7.092;2022-10-16T07:45:49;19.00;62.10
3699;DHT22;1865;50.918;7.092;2022-10-16T07:48:16;19.00;61.80
3699;DHT22;1865;50.918;7.092;2022-10-16T07:50:43;19.10;61.90
3699;DHT22;1865;50.918;7.092;2022-10-16T07:53:09;19.10;61.50
3699;DHT22;1865;50.918;7.092;2022-10-16T07:55:35;19.20;61.10
3699;DHT22;1865;50.918;7.092;2022-10-16T07:58:00;19.10;61.40
3699;DHT22;1865;50.918;7.092;2022-10-16T08:00:26;19.00;61.40
3699;DHT22;1865;50.918;7.092;2022-10-16T08:02:51;19.10;61.50
3699;DHT22;1865;50.918;7.092;2022-10-16T08:05:17;19.00;61.50
3699;DHT22;1865;50.918;7.092;2022-10-16T08:07:42;19.10;61.60
3699;DHT22;1865;50.918;7.092;2022-10-16T08:10:16;19.10;61.50
3699;DHT22;1865;50.918;7.092;2022-10-16T08:12:42;19.10;61.60
3699;DHT22;1865;50.918;7.092;2022-10-16T08:15:08;19.10;61.80
3699;DHT22;1865;50.918;7.092;2022-10-16T08:17:34;19.10;61.70
3699;DHT22;1865;50.918;7.092;2022-10-16T08:19:59;19.20;61.80
3699;DHT22;1865;50.918;7.092;2022-10-16T08:22:24;19.40;61.50
3699;DHT22;1865;50.918;7.092;2022-10-16T08:24:50;19.70;61.50
3699;DHT22;1865;50.918;7.092;2022-10-16T08:27:16;20.00;60.90
3699;DHT22;1865;50.918;7.092;2022-10-16T08:29:41;20.60;60.80
3699;DHT22;1865;50.918;7.092;2022-10-16T08:32:06;21.50;58.00
3699;DHT22;1865;50.918;7.092;2022-10-16T08:34:32;22.00;53.70
3699;DHT22;1865;50.918;7.092;2022-10-16T08:36:57;22.10;54.10
3699;DHT22;1865;50.918;7.092;2022-10-16T08:39:23;22.20;54.00
3699;DHT22;1865;50.918;7.092;2022-10-16T08:42:04;22.10;54.20
3699;DHT22;1865;50.918;7.092;2022-10-16T08:45:03;21.90;53.50
3699;DHT22;1865;50.918;7.092;2022-10-16T08:47:53;21.80;53.60
3699;DHT22;1865;50.918;7.092;2022-10-16T08:50:25;21.60;54.10
3699;DHT22;1865;50.918;7.092;2022-10-16T08:52:53;21.50;54.40
3699;DHT22;1865;50.918;7.092;2022-10-16T08:55:37;21.30;54.30
3699;DHT22;1865;50.918;7.092;2022-10-16T08:58:12;21.40;55.20
3699;DHT22;1865;50.918;7.092;2022-10-16T09:00:39;21.70;54.00
3699;DHT22;1865;50.918;7.092;2022-10-16T09:06:07;23.10;52.30
3699;DHT22;1865;50.918;7.092;2022-10-16T09:16:39;22.30;50.00
3699;DHT22;1865;50.918;7.092;2022-10-16T09:19:13;21.80;50.70
3699;DHT22;1865;50.918;7.092;2022-10-16T09:21:44;21.70;51.80
3699;DHT22;1865;50.918;7.092;2022-10-16T09:24:21;21.60;52.10
3699;DHT22;1865;50.918;7.092;2022-10-16T09:26:49;21.60;51.20
3699;DHT22;1865;50.918;7.092;2022-10-16T09:29:16;21.70;51.80
3699;DHT22;1865;50.918;7.092;2022-10-16T09:31:42;21.70;51.20
3699;DHT22;1865;50.918;7.092;2022-10-16T09:34:30;21.60;51.50
3699;DHT22;1865;50.918;7.092;2022-10-16T09:36:57;21.60;50.00
3699;DHT22;1865;50.918;7.092;2022-10-16T09:39:24;21.60;50.20
3699;DHT22;1865;50.918;7.092;2022-10-16T09:41:49;21.50;50.10
3699;DHT22;1865;50.918;7.092;2022-10-16T09:44:30;21.60;48.80
3699;DHT22;1865;50.918;7.092;2022-10-16T09:47:04;21.60;49.90
3699;DHT22;1865;50.918;7.092;2022-10-16T09:49:30;21.60;50.10
3699;DHT22;1865;50.918;7.092;2022-10-16T09:52:06;21.60;49.20
3699;DHT22;1865;50.918;7.092;2022-10-16T09:54:36;21.70;49.70
3699;DHT22;1865;50.918;7.092;2022-10-16T09:57:11;21.80;48.50
3699;DHT22;1865;50.918;7.092;2022-10-16T09:59:49;21.90;49.00
3699;DHT22;1865;50.918;7.092;2022-10-16T10:02:17;22.00;49.80
3699;DHT22;1865;50.918;7.092;2022-10-16T10:04:53;22.10;49.70
3699;DHT22;1865;50.918;7.092;2022-10-16T10:07:35;22.20;49.30
3699;DHT22;1865;50.918;7.092;2022-10-16T10:10:05;22.10;49.20
3699;DHT22;1865;50.918;7.092;2022-10-16T10:12:32;22.20;49.70
3699;DHT22;1865;50.918;7.092;2022-10-16T10:15:13;22.20;48.90
3699;DHT22;1865;50.918;7.092;2022-10-16T10:17:47;22.20;49.40
3699;DHT22;1865;50.918;7.092;2022-10-16T10:22:43;22.30;47.20
3699;DHT22;1865;50.918;7.092;2022-10-16T10:27:39;22.40;46.70
3699;DHT22;1865;50.918;7.092;2022-10-16T10:30:24;22.40;45.40
3699;DHT22;1865;50.918;7.092;2022-10-16T10:35:25;22.30;45.30
3699;DHT22;1865;50.918;7.092;2022-10-16T10:46:34;22.40;44.00
3699;DHT22;1865;50.918;7.092;2022-10-16T10:49:25;22.30;44.30
3699;DHT22;1865;50.918;7.092;2022-10-16T10:54:46;22.50;46.30
3699;DHT22;1865;50.918;7.092;2022-10-16T10:57:52;22.70;44.00
3699;DHT22;1865;50.918;7.092;2022-10-16T11:00:20;22.80;43.80
3699;DHT22;1865;50.918;7.092;2022-10-16T11:05:49;23.00;43.10
3699;DHT22;1865;50.918;7.092;2022-10-16T11:11:03;23.00;43.00
3699;DHT22;1865;50.918;7.092;2022-10-16T11:13:58;23.10;41.90
3699;DHT22;1865;50.918;7.092;2022-10-16T11:16:35;23.20;42.20
3699;DHT22;1865;50.918;7.092;2022-10-16T11:22:36;23.20;40.60
3699;DHT22;1865;50.918;7.092;2022-10-16T11:25:13;23.10;41.00
3699;DHT22;1865;50.918;7.092;2022-10-16T11:27:50;23.20;41.20
3699;DHT22;1865;50.918;7.092;2022-10-16T11:30:23;23.30;41.80
3699;DHT22;1865;50.918;7.092;2022-10-16T11:38:34;23.70;41.50
3699;DHT22;1865;50.918;7.092;2022-10-16T11:41:20;23.70;40.70
3699;DHT22;1865;50.918;7.092;2022-10-16T11:44:06;23.60;41.00
3699;DHT22;1865;50.918;7.092;2022-10-16T11:46:36;23.70;39.60
3699;DHT22;1865;50.918;7.092;2022-10-16T11:49:11;23.70;37.90
3699;DHT22;1865;50.918;7.092;2022-10-16T11:51:43;23.60;38.40
3699;DHT22;1865;50.918;7.092;2022-10-16T11:54:28;23.60;38.20
3699;DHT22;1865;50.918;7.092;2022-10-16T11:57:02;23.60;39.10
3699;DHT22;1865;50.918;7.092;2022-10-16T11:59:43;23.80;38.80
3699;DHT22;1865;50.918;7.092;2022-10-16T12:07:52;24.20;38.60
3699;DHT22;1865;50.918;7.092;2022-10-16T12:10:24;24.40;38.00
3699;DHT22;1865;50.918;7.092;2022-10-16T12:12:51;24.30;38.30
3699;DHT22;1865;50.918;7.092;2022-10-16T12:15:27;24.30;39.30
3699;DHT22;1865;50.918;7.092;2022-10-16T12:17:53;24.10;38.40
3699;DHT22;1865;50.918;7.092;2022-10-16T12:20:28;24.00;38.50
3699;DHT22;1865;50.918;7.092;2022-10-16T12:23:02;24.00;39.10
3699;DHT22;1865;50.918;7.092;2022-10-16T12:28:03;24.10;38.60
3699;DHT22;1865;50.918;7.092;2022-10-16T12:30:32;24.00;38.30
3699;DHT22;1865;50.918;7.092;2022-10-16T12:33:01;24.00;39.70
3699;DHT22;1865;50.918;7.092;2022-10-16T12:35:30;23.90;40.00
3699;DHT22;1865;50.918;7.092;2022-10-16T12:38:36;24.00;39.90
3699;DHT22;1865;50.918;7.092;2022-10-16T12:41:05;24.10;39.60
3699;DHT22;1865;50.918;7.092;2022-10-16T12:43:46;24.30;39.80
3699;DHT22;1865;50.918;7.092;2022-10-16T12:48:44;24.80;38.90
3699;DHT22;1865;50.918;7.092;2022-10-16T12:51:35;24.90;38.80
3699;DHT22;1865;50.918;7.092;2022-10-16T13:13:34;24.50;38.80
3699;DHT22;1865;50.918;7.092;2022-10-16T13:18:56;24.30;39.10
3699;DHT22;1865;50.918;7.092;2022-10-16T13:21:41;24.20;39.10
3699;DHT22;1865;50.918;7.092;2022-10-16T13:27:18;24.50;40.00
3699;DHT22;1865;50.918;7.092;2022-10-16T13:29:52;24.40;39.70
3699;DHT22;1865;50.918;7.092;2022-10-16T13:32:21;24.10;40.10
3699;DHT22;1865;50.918;7.092;2022-10-16T13:34:48;24.10;41.20
3699;DHT22;1865;50.918;7.092;2022-10-16T13:37:21;24.20;41.20
3699;DHT22;1865;50.918;7.092;2022-10-16T13:39:47;24.30;41.30
3699;DHT22;1865;50.918;7.092;2022-10-16T13:42:29;24.50;41.20
3699;DHT22;1865;50.918;7.092;2022-10-16T13:44:56;24.60;40.30
3699;DHT22;1865;50.918;7.092;2022-10-16T13:47:27;24.60;40.50
3699;DHT22;1865;50.918;7.092;2022-10-16T13:50:11;24.70;40.90
3699;DHT22;1865;50.918;7.092;2022-10-16T13:52:37;24.60;41.70
3699;DHT22;1865;50.918;7.092;2022-10-16T13:55:04;24.50;42.00
3699;DHT22;1865;50.918;7.092;2022-10-16T13:57:35;24.30;42.00
3699;DHT22;1865;50.918;7.092;2022-10-16T14:00:00;24.10;42.40
3699;DHT22;1865;50.918;7.092;2022-10-16T14:02:33;24.10;42.50
3699;DHT22;1865;50.918;7.092;2022-10-16T14:05:01;24.10;43.10
3699;DHT22;1865;50.918;7.092;2022-10-16T14:07:34;24.40;43.00
3699;DHT22;1865;50.918;7.092;2022-10-16T14:10:03;24.60;43.10
3699;DHT22;1865;50.918;7.092;2022-10-16T14:12:29;24.50;41.10
3699;DHT22;1865;50.918;7.092;2022-10-16T14:14:57;24.40;41.30
3699;DHT22;1865;50.918;7.092;2022-10-16T14:17:28;24.30;41.40
3699;DHT22;1865;50.918;7.092;2022-10-16T14:19:57;24.50;42.20
3699;DHT22;1865;50.918;7.092;2022-10-16T14:22:39;24.50;43.10
3699;DHT22;1865;50.918;7.092;2022-10-16T14:28:16;24.30;42.40
3699;DHT22;1865;50.918;7.092;2022-10-16T14:30:58;24.30;42.50
3699;DHT22;1865;50.918;7.092;2022-10-16T14:33:33;24.40;43.00
3699;DHT22;1865;50.918;7.092;2022-10-16T14:38:24;24.20;42.90
3699;DHT22;1865;50.918;7.092;2022-10-16T14:40:50;24.20;43.10
3699;DHT22;1865;50.918;7.092;2022-10-16T14:43:37;24.30;43.80
3699;DHT22;1865;50.918;7.092;2022-10-16T14:46:14;24.30;44.50
3699;DHT22;1865;50.918;7.092;2022-10-16T14:48:42;24.30;44.40
3699;DHT22;1865;50.918;7.092;2022-10-16T14:51:13;24.30;44.60
3699;DHT22;1865;50.918;7.092;2022-10-16T14:53:39;24.30;45.00
3699;DHT22;1865;50.918;7.092;2022-10-16T14:56:21;24.20;44.80
3699;DHT22;1865;50.918;7.092;2022-10-16T14:58:48;24.30;45.00
3699;DHT22;1865;50.918;7.092;2022-10-16T15:01:14;24.20;45.00
3699;DHT22;1865;50.918;7.092;2022-10-16T15:03:40;24.10;45.40
3699;DHT22;1865;50.918;7.092;2022-10-16T15:06:11;24.00;45.90
3699;DHT22;1865;50.918;7.092;2022-10-16T15:08:37;23.90;45.90
3699;DHT22;1865;50.918;7.092;2022-10-16T15:11:03;23.80;46.50
3699;DHT22;1865;50.918;7.092;2022-10-16T15:13:28;23.70;46.60
3699;DHT22;1865;50.918;7.092;2022-10-16T15:15:54;23.70;46.90
3699;DHT22;1865;50.918;7.092;2022-10-16T15:18:19;23.70;47.10
3699;DHT22;1865;50.918;7.092;2022-10-16T15:20:48;23.60;47.20
3699;DHT22;1865;50.918;7.092;2022-10-16T15:23:16;23.50;47.70
3699;DHT22;1865;50.918;7.092;2022-10-16T15:25:46;23.40;48.20
3699;DHT22;1865;50.918;7.092;2022-10-16T15:28:13;23.30;48.60
3699;DHT22;1865;50.918;7.092;2022-10-16T15:30:40;23.20;48.60
3699;DHT22;1865;50.918;7.092;2022-10-16T15:33:14;23.20;48.80
3699;DHT22;1865;50.918;7.092;2022-10-16T15:35:41;23.20;48.90
3699;DHT22;1865;50.918;7.092;2022-10-16T15:38:10;23.30;48.90
3699;DHT22;1865;50.918;7.092;2022-10-16T15:40:37;23.30;49.00
3699;DHT22;1865;50.918;7.092;2022-10-16T15:43:03;23.20;49.10
3699;DHT22;1865;50.918;7.092;2022-10-16T15:45:28;23.20;49.30
3699;DHT22;1865;50.918;7.092;2022-10-16T15:47:53;23.10;49.60
3699;DHT22;1865;50.918;7.092;2022-10-16T15:50:19;23.10;50.20
3699;DHT22;1865;50.918;7.092;2022-10-16T15:52:44;23.00;50.60
3699;DHT22;1865;50.918;7.092;2022-10-16T15:55:12;22.90;50.80
3699;DHT22;1865;50.918;7.092;2022-10-16T15:57:38;23.00;50.90
3699;DHT22;1865;50.918;7.092;2022-10-16T16:00:11;23.00;51.00
3699;DHT22;1865;50.918;7.092;2022-10-16T16:02:37;22.80;51.20
3699;DHT22;1865;50.918;7.092;2022-10-16T16:05:04;22.80;51.50
3699;DHT22;1865;50.918;7.092;2022-10-16T16:07:35;22.90;51.50
3699;DHT22;1865;50.918;7.092;2022-10-16T16:10:01;22.90;51.70
3699;DHT22;1865;50.918;7.092;2022-10-16T16:12:27;22.80;51.60
3699;DHT22;1865;50.918;7.092;2022-10-16T16:14:53;22.80;52.00
3699;DHT22;1865;50.918;7.092;2022-10-16T16:17:18;22.70;52.10
3699;DHT22;1865;50.918;7.092;2022-10-16T16:19:45;22.60;52.30
3699;DHT22;1865;50.918;7.092;2022-10-16T16:22:11;22.50;52.90
3699;DHT22;1865;50.918;7.092;2022-10-16T16:24:36;22.50;53.30
3699;DHT22;1865;50.918;7.092;2022-10-16T16:27:02;22.40;53.20
3699;DHT22;1865;50.918;7.092;2022-10-16T16:29:27;22.40;53.50
3699;DHT22;1865;50.918;7.092;2022-10-16T16:31:53;22.30;53.40
3699;DHT22;1865;50.918;7.092;2022-10-16T16:34:24;22.30;53.90
3699;DHT22;1865;50.918;7.092;2022-10-16T16:36:50;22.20;53.90
3699;DHT22;1865;50.918;7.092;2022-10-16T16:39:15;22.20;54.00
3699;DHT22;1865;50.918;7.092;2022-10-16T16:41:41;22.20;54.10
3699;DHT22;1865;50.918;7.092;2022-10-16T16:44:08;22.20;54.10
3699;DHT22;1865;50.918;7.092;2022-10-16T16:46:36;22.10;54.20
3699;DHT22;1865;50.918;7.092;2022-10-16T16:49:03;22.00;54.50
3699;DHT22;1865;50.918;7.092;2022-10-16T16:51:29;22.00;54.50
3699;DHT22;1865;50.918;7.092;2022-10-16T16:53:55;22.10;54.50
3699;DHT22;1865;50.918;7.092;2022-10-16T16:56:22;22.10;54.50
3699;DHT22;1865;50.918;7.092;2022-10-16T16:58:49;22.10;54.70
3699;DHT22;1865;50.918;7.092;2022-10-16T17:01:15;22.10;54.60
3699;DHT22;1865;50.918;7.092;2022-10-16T17:03:43;22.10;54.60
3699;DHT22;1865;50.918;7.092;2022-10-16T17:06:13;22.00;54.60
3699;DHT22;1865;50.918;7.092;2022-10-16T17:08:40;22.00;54.80
3699;DHT22;1865;50.918;7.092;2022-10-16T17:11:06;22.00;55.00
3699;DHT22;1865;50.918;7.092;2022-10-16T17:13:36;22.00;55.10
3699;DHT22;1865;50.918;7.092;2022-10-16T17:16:04;22.00;55.10
3699;DHT22;1865;50.918;7.092;2022-10-16T17:18:30;22.00;55.30
3699;DHT22;1865;50.918;7.092;2022-10-16T17:20:59;22.00;55.30
3699;DHT22;1865;50.918;7.092;2022-10-16T17:23:25;22.00;55.30
3699;DHT22;1865;50.918;7.092;2022-10-16T17:25:50;22.00;55.20
3699;DHT22;1865;50.918;7.092;2022-10-16T17:28:16;22.10;55.30
3699;DHT22;1865;50.918;7.092;2022-10-16T17:30:42;22.00;55.30
3699;DHT22;1865;50.918;7.092;2022-10-16T17:33:09;21.90;55.60
3699;DHT22;1865;50.918;7.092;2022-10-16T17:35:39;21.90;55.50
3699;DHT22;1865;50.918;7.092;2022-10-16T17:38:05;21.90;55.70
3699;DHT22;1865;50.918;7.092;2022-10-16T17:40:31;21.90;55.80
3699;DHT22;1865;50.918;7.092;2022-10-16T17:42:57;21.80;56.20
3699;DHT22;1865;50.918;7.092;2022-10-16T17:45:22;21.70;56.20
3699;DHT22;1865;50.918;7.092;2022-10-16T17:47:48;21.70;56.40
3699;DHT22;1865;50.918;7.092;2022-10-16T17:50:13;21.80;56.10
3699;DHT22;1865;50.918;7.092;2022-10-16T17:52:39;21.80;56.10
3699;DHT22;1865;50.918;7.092;2022-10-16T17:55:05;21.80;55.80
3699;DHT22;1865;50.918;7.092;2022-10-16T17:57:31;21.90;56.00